createdAt,value
2022-08-25T00:01:19.650Z,19.76
2022-08-25T00:03:46.081Z,19.45
2022-08-25T00:06:13.301Z,19.26
2022-08-25T00:08:39.862Z,19.68
2022-08-25T00:11:06.294Z,19.40
2022-08-25T00:13:33.116Z,19.01
2022-08-25T00:16:00.028Z,18.55
2022-08-25T00:18:26.788Z,18.93
2022-08-25T00:20:53.400Z,19.54
2022-08-25T00:23:19.797Z,19.39
2022-08-25T00:25:46.550Z,18.85
2022-08-25T00:28:13.572Z,19.11
2022-08-25T00:30:40.587Z,19.02
2022-08-25T00:33:07.067Z,19.20
2022-08-25T00:35:33.692Z,19.31
2022-08-25T00:38:00.305Z,19.74
2022-08-25T00:40:26.885Z,19.61
2022-08-25T00:42:53.742Z,19.94
2022-08-25T00:45:20.508Z,20.03
2022-08-25T00:47:47.177Z,19.72
2022-08-25T00:50:13.801Z,19.10
2022-08-25T00:52:40.297Z,19.22
2022-08-25T00:55:08.249Z,19.40
2022-08-25T00:57:35.183Z,19.79
2022-08-25T01:00:04.782Z,19.37
2022-08-25T01:02:31.302Z,19.67
2022-08-25T01:05:00.147Z,20.02
2022-08-25T01:07:26.629Z,20.11
2022-08-25T01:09:53.118Z,20.10
2022-08-25T01:12:20.059Z,20.20
2022-08-25T01:14:46.732Z,20.31
2022-08-25T01:17:13.790Z,20.28
2022-08-25T01:19:40.467Z,20.17
2022-08-25T01:22:07.040Z,20.32
2022-08-25T01:24:33.510Z,20.30
2022-08-25T01:27:00.670Z,20.11
2022-08-25T01:29:27.101Z,20.26
2022-08-25T01:31:53.652Z,20.46
2022-08-25T01:34:20.399Z,20.20
2022-08-25T01:36:47.020Z,20.05
2022-08-25T01:39:13.674Z,19.77
2022-08-25T01:41:40.434Z,19.84
2022-08-25T01:44:06.943Z,19.87
2022-08-25T01:46:36.511Z,19.97
2022-08-25T01:49:06.719Z,20.30
2022-08-25T01:51:33.421Z,20.42
2022-08-25T01:53:59.857Z,20.02
2022-08-25T01:56:26.625Z,20.24
2022-08-25T01:58:53.076Z,20.27
2022-08-25T02:01:19.982Z,19.94
2022-08-25T02:03:48.083Z,20.01
2022-08-25T02:06:15.072Z,20.31
2022-08-25T02:08:41.930Z,20.10
2022-08-25T02:11:08.463Z,19.98
2022-08-25T02:13:35.068Z,19.69
2022-08-25T02:16:02.081Z,19.97
2022-08-25T02:18:28.918Z,19.81
2022-08-25T02:20:55.580Z,20.01
2022-08-25T02:23:22.279Z,20.10
2022-08-25T02:25:48.910Z,19.92
2022-08-25T02:28:17.839Z,20.12
2022-08-25T02:30:44.394Z,20.19
2022-08-25T02:33:11.115Z,20.25
2022-08-25T02:35:37.549Z,20.06
2022-08-25T02:38:04.331Z,19.70
2022-08-25T02:40:31.047Z,19.58
2022-08-25T02:42:57.574Z,19.56
2022-08-25T02:45:23.973Z,19.52
2022-08-25T02:47:50.579Z,19.96
2022-08-25T02:50:17.092Z,19.76
2022-08-25T02:52:43.763Z,19.98
2022-08-25T02:55:10.565Z,20.11
2022-08-25T02:57:37.051Z,20.19
2022-08-25T03:00:03.549Z,20.02
2022-08-25T03:02:30.485Z,19.94
2022-08-25T03:04:57.253Z,19.94
2022-08-25T03:07:24.769Z,20.08
2022-08-25T03:09:51.418Z,20.27
2022-08-25T03:12:17.855Z,20.32
2022-08-25T03:14:44.789Z,20.10
2022-08-25T03:17:11.559Z,19.90
2022-08-25T03:19:38.052Z,19.60
2022-08-25T03:22:04.720Z,20.06
2022-08-25T03:24:31.427Z,20.05
2022-08-25T03:26:58.035Z,20.00
2022-08-25T03:29:24.478Z,20.17
2022-08-25T03:31:51.122Z,19.77
2022-08-25T03:34:17.608Z,19.70
2022-08-25T03:36:45.148Z,19.56
2022-08-25T03:39:11.681Z,19.79
2022-08-25T03:41:38.336Z,19.63
2022-08-25T03:44:04.777Z,19.73
2022-08-25T03:46:31.502Z,19.94
2022-08-25T03:48:58.509Z,19.78
2022-08-25T03:51:24.950Z,19.97
2022-08-25T03:53:52.157Z,19.76
2022-08-25T03:56:18.753Z,20.00
2022-08-25T03:58:45.343Z,19.88
2022-08-25T04:04:02.463Z,19.56
2022-08-25T04:06:28.872Z,19.71
2022-08-25T04:08:55.614Z,19.64
2022-08-25T04:11:22.217Z,19.41
2022-08-25T04:13:48.799Z,19.59
2022-08-25T04:16:15.258Z,19.82
2022-08-25T04:18:42.036Z,19.43
2022-08-25T04:21:08.601Z,19.73
2022-08-25T04:23:35.130Z,19.46
2022-08-25T04:26:01.852Z,19.57
2022-08-25T04:28:28.421Z,19.13
2022-08-25T04:30:54.842Z,19.32
2022-08-25T04:33:21.485Z,19.14
2022-08-25T04:35:47.900Z,19.40
2022-08-25T04:38:14.374Z,19.56
2022-08-25T04:40:41.283Z,19.64
2022-08-25T04:43:07.742Z,19.75
2022-08-25T04:45:34.216Z,19.81
2022-08-25T04:48:01.118Z,19.39
2022-08-25T04:50:27.594Z,19.47
2022-08-25T04:52:54.230Z,19.56
2022-08-25T04:55:20.932Z,19.83
2022-08-25T04:57:47.377Z,19.89
2022-08-25T05:00:13.755Z,19.86
2022-08-25T05:02:40.590Z,19.86
2022-08-25T05:05:07.089Z,19.92
2022-08-25T05:07:33.512Z,19.84
2022-08-25T05:10:00.217Z,19.85
2022-08-25T05:12:26.644Z,19.98
2022-08-25T05:14:57.245Z,19.81
2022-08-25T05:17:23.961Z,19.66
2022-08-25T05:19:50.438Z,19.54
2022-08-25T05:22:16.949Z,19.76
2022-08-25T05:24:46.347Z,19.60
2022-08-25T05:27:13.173Z,19.67
2022-08-25T05:29:39.587Z,19.88
2022-08-25T05:32:06.320Z,19.53
2022-08-25T05:34:33.044Z,19.80
2022-08-25T05:36:59.496Z,20.03
2022-08-25T05:39:26.872Z,19.84
2022-08-25T05:41:53.938Z,19.86
2022-08-25T05:44:21.362Z,19.66
2022-08-25T05:46:48.279Z,20.03
2022-08-25T05:49:15.171Z,20.02
2022-08-25T05:51:41.664Z,20.09
2022-08-25T05:54:08.117Z,20.17
2022-08-25T05:56:34.750Z,20.04
2022-08-25T05:59:02.449Z,20.19
2022-08-25T06:01:31.784Z,20.26
2022-08-25T06:03:58.698Z,20.35
2022-08-25T06:06:25.164Z,20.25
2022-08-25T06:08:51.736Z,20.31
2022-08-25T06:11:20.942Z,20.36
2022-08-25T06:13:47.396Z,20.38
2022-08-25T06:16:14.015Z,20.44
2022-08-25T06:18:40.897Z,20.22
2022-08-25T06:21:07.390Z,20.26
2022-08-25T06:23:36.487Z,20.31
2022-08-25T06:26:02.915Z,20.39
2022-08-25T06:28:29.749Z,20.44
2022-08-25T06:30:56.256Z,20.56
2022-08-25T06:33:22.713Z,20.59
2022-08-25T06:35:49.214Z,20.55
2022-08-25T06:38:15.789Z,20.59
2022-08-25T06:40:42.268Z,20.63
2022-08-25T06:43:08.943Z,20.68
2022-08-25T06:45:37.975Z,20.43
2022-08-25T06:48:04.458Z,20.42
2022-08-25T06:50:31.147Z,20.57
2022-08-25T06:52:58.109Z,20.67
2022-08-25T06:55:24.695Z,20.78
2022-08-25T06:57:51.309Z,20.83
2022-08-25T07:00:17.767Z,20.90
2022-08-25T07:02:44.224Z,21.00
2022-08-25T07:05:16.963Z,21.02
2022-08-25T07:07:48.113Z,20.95
2022-08-25T07:10:14.498Z,20.95
2022-08-25T07:12:45.986Z,21.03
2022-08-25T07:15:20.649Z,21.07
2022-08-25T07:17:47.436Z,21.04
2022-08-25T07:20:15.471Z,21.03
2022-08-25T07:22:42.737Z,21.13
2022-08-25T07:25:09.236Z,21.06
2022-08-25T07:27:35.834Z,21.21
2022-08-25T07:30:02.248Z,21.10
2022-08-25T07:32:31.385Z,21.09
2022-08-25T07:34:58.195Z,20.95
2022-08-25T07:37:48.777Z,20.95
2022-08-25T07:40:11.310Z,20.97
2022-08-25T07:42:37.821Z,21.07
2022-08-25T07:45:04.309Z,21.09
2022-08-25T07:47:34.331Z,21.11
2022-08-25T07:50:00.752Z,20.75
2022-08-25T07:52:28.086Z,20.81
2022-08-25T07:54:54.635Z,21.01
2022-08-25T07:57:21.524Z,21.10
2022-08-25T07:59:47.917Z,21.11
2022-08-25T08:02:18.468Z,21.14
2022-08-25T08:04:45.754Z,21.10
2022-08-25T08:07:12.352Z,21.15
2022-08-25T08:09:38.975Z,21.13
2022-08-25T08:12:05.426Z,21.13
2022-08-25T08:14:31.887Z,21.13
2022-08-25T08:16:59.100Z,21.19
2022-08-25T08:19:25.862Z,21.21
2022-08-25T08:21:52.672Z,21.27
2022-08-25T08:24:44.104Z,21.43
2022-08-25T08:27:07.504Z,21.51
2022-08-25T08:29:34.035Z,21.35
2022-08-25T08:32:01.803Z,21.58
2022-08-25T08:34:29.069Z,21.60
2022-08-25T08:36:56.119Z,21.66
2022-08-25T08:39:22.880Z,21.26
2022-08-25T08:42:07.697Z,21.00
2022-08-25T08:44:36.811Z,20.82
2022-08-25T08:47:03.625Z,20.87
2022-08-25T08:49:30.468Z,20.99
2022-08-25T08:51:58.328Z,21.23
2022-08-25T08:54:24.828Z,21.54
2022-08-25T08:56:52.825Z,21.82
2022-08-25T08:59:19.993Z,22.05
2022-08-25T09:01:52.606Z,22.13
2022-08-25T09:04:21.172Z,22.18
2022-08-25T09:06:50.968Z,22.33
2022-08-25T09:09:20.122Z,22.34
2022-08-25T09:11:46.907Z,22.36
2022-08-25T09:14:13.332Z,22.44
2022-08-25T09:16:42.786Z,22.46
2022-08-25T09:19:11.058Z,22.36
2022-08-25T09:21:47.695Z,22.54
2022-08-25T09:24:15.800Z,22.32
2022-08-25T09:26:42.390Z,22.01
2022-08-25T09:29:16.348Z,21.73
2022-08-25T09:31:43.686Z,21.75
2022-08-25T09:34:10.358Z,21.48
2022-08-25T09:36:39.270Z,21.78
2022-08-25T09:39:05.905Z,22.04
2022-08-25T09:41:33.354Z,22.22
2022-08-25T09:44:02.341Z,22.33
2022-08-25T09:46:28.891Z,22.41
2022-08-25T09:48:56.847Z,22.53
2022-08-25T09:51:24.301Z,22.70
2022-08-25T09:53:51.535Z,22.62
2022-08-25T09:56:17.969Z,22.66
2022-08-25T09:58:45.515Z,22.78
2022-08-25T10:01:12.268Z,22.89
2022-08-25T10:03:39.006Z,23.02
2022-08-25T10:06:05.495Z,23.01
2022-08-25T10:08:32.043Z,23.12
2022-08-25T10:10:58.601Z,23.09
2022-08-25T10:13:25.247Z,23.05
2022-08-25T10:18:36.076Z,23.26
2022-08-25T10:21:02.483Z,23.34
2022-08-25T10:23:30.695Z,23.42
2022-08-25T10:26:00.570Z,23.17
2022-08-25T10:28:29.925Z,23.21
2022-08-25T10:30:56.397Z,23.29
2022-08-25T10:33:23.043Z,23.33
2022-08-25T10:35:49.643Z,23.28
2022-08-25T10:38:21.623Z,23.41
2022-08-25T10:40:48.589Z,23.48
2022-08-25T10:43:27.418Z,23.50
2022-08-25T10:45:54.275Z,23.38
2022-08-25T10:48:22.272Z,23.40
2022-08-25T10:50:49.114Z,23.33
2022-08-25T10:53:15.892Z,23.29
2022-08-25T12:00:26.542Z,23.87
2022-08-25T12:02:52.926Z,23.89
2022-08-25T12:05:19.399Z,23.95
2022-08-25T12:07:46.205Z,24.00
2022-08-25T12:10:12.879Z,24.06
2022-08-25T12:12:39.291Z,24.08
2022-08-25T12:15:06.031Z,24.09
2022-08-25T12:17:32.522Z,24.20
2022-08-25T12:19:59.312Z,24.36
2022-08-25T12:22:25.790Z,24.35
2022-08-25T12:24:52.294Z,23.85
2022-08-25T12:27:18.731Z,24.39
2022-08-25T12:29:50.017Z,24.55
2022-08-25T12:32:16.678Z,24.73
2022-08-25T12:34:43.057Z,24.81
2022-08-25T12:37:14.751Z,24.85
2022-08-25T12:39:41.183Z,24.84
2022-08-25T12:42:07.595Z,24.89
2022-08-25T12:44:34.191Z,24.93
2022-08-25T12:47:00.654Z,25.06
2022-08-25T12:49:30.720Z,25.16
2022-08-25T12:51:59.301Z,25.31
2022-08-25T12:54:25.762Z,25.22
2022-08-25T12:56:53.910Z,25.08
2022-08-25T12:59:20.838Z,25.23
2022-08-25T13:01:47.979Z,25.13
2022-08-25T13:04:15.854Z,25.04
2022-08-25T13:06:48.831Z,24.92
2022-08-25T13:09:15.636Z,24.98
2022-08-25T13:11:42.636Z,25.01
2022-08-25T13:14:11.495Z,25.16
2022-08-25T13:16:38.061Z,25.37
2022-08-25T13:19:04.700Z,25.35
2022-08-25T13:21:33.413Z,25.34
2022-08-25T13:24:05.149Z,25.36
2022-08-25T13:26:32.438Z,25.38
2022-08-25T13:28:59.949Z,25.32
2022-08-25T13:31:26.468Z,25.32
2022-08-25T13:33:54.927Z,25.51
2022-08-25T13:36:21.821Z,25.72
2022-08-25T13:38:48.767Z,25.73
2022-08-25T13:41:16.382Z,25.71
2022-08-25T13:43:44.711Z,25.56
2022-08-25T13:46:12.474Z,25.69
2022-08-25T13:48:49.823Z,25.69
2022-08-25T13:51:16.647Z,25.69
2022-08-25T13:53:48.388Z,25.71
2022-08-25T13:58:46.947Z,25.11
2022-08-25T14:01:22.331Z,25.40
2022-08-25T14:04:01.461Z,25.51
2022-08-25T14:06:28.076Z,25.32
2022-08-25T14:08:54.861Z,25.27
2022-08-25T14:11:21.500Z,25.33
2022-08-25T14:13:48.651Z,25.32
2022-08-25T14:16:15.687Z,25.27
2022-08-25T14:18:44.348Z,25.33
2022-08-25T14:21:11.083Z,25.56
2022-08-25T14:23:37.901Z,25.73
2022-08-25T14:26:04.650Z,25.87
2022-08-25T14:28:33.083Z,25.98
2022-08-25T14:30:59.616Z,26.22
2022-08-25T14:33:26.870Z,26.23
2022-08-25T14:35:53.953Z,26.21
2022-08-25T14:38:21.795Z,26.24
2022-08-25T14:40:52.156Z,26.45
2022-08-25T14:43:20.888Z,26.58
2022-08-25T14:45:50.950Z,26.60
2022-08-25T14:48:19.478Z,26.39
2022-08-25T14:50:46.082Z,26.39
2022-08-25T14:53:13.024Z,26.47
2022-08-25T14:55:39.742Z,26.57
2022-08-25T14:58:06.845Z,26.66
2022-08-25T15:00:35.532Z,26.67
2022-08-25T15:03:03.114Z,26.70
2022-08-25T15:05:29.850Z,26.88
2022-08-25T15:07:57.611Z,26.76
2022-08-25T15:10:25.483Z,26.78
2022-08-25T15:12:53.904Z,26.80
2022-08-25T15:15:21.597Z,26.85
2022-08-25T15:17:49.481Z,27.03
2022-08-25T15:20:16.864Z,26.89
2022-08-25T15:22:43.496Z,27.02
2022-08-25T15:25:10.423Z,27.14
2022-08-25T15:27:37.365Z,27.15
2022-08-25T15:30:03.883Z,27.18
2022-08-25T15:32:30.550Z,27.19
2022-08-25T15:34:57.721Z,27.27
2022-08-25T15:37:24.438Z,27.27
2022-08-25T15:39:50.908Z,27.30
2022-08-25T15:42:17.450Z,27.34
2022-08-25T15:44:53.331Z,27.33
2022-08-25T15:47:20.162Z,27.34
2022-08-25T15:49:47.072Z,27.05
2022-08-25T15:52:13.684Z,27.17
2022-08-25T15:54:40.474Z,27.27
2022-08-25T15:57:09.530Z,27.27
2022-08-25T15:59:41.025Z,27.29
2022-08-25T16:02:15.281Z,27.29
2022-08-25T16:04:42.034Z,27.28
2022-08-25T16:07:09.256Z,27.25
2022-08-25T16:09:40.281Z,27.30
2022-08-25T16:12:08.719Z,27.28
2022-08-25T16:14:35.423Z,27.26
2022-08-25T16:17:02.210Z,27.20
2022-08-25T16:19:29.527Z,27.25
2022-08-25T16:21:56.226Z,27.15
2022-08-25T16:24:22.763Z,27.18
2022-08-25T16:26:50.357Z,27.05
2022-08-25T16:29:18.347Z,27.13
2022-08-25T16:31:48.187Z,27.15
2022-08-25T16:34:20.042Z,26.97
2022-08-25T16:36:46.755Z,26.91
2022-08-25T16:39:13.218Z,26.87
2022-08-25T16:41:40.160Z,26.94
2022-08-25T16:44:11.141Z,26.91
2022-08-25T16:46:38.161Z,26.84
2022-08-25T16:49:07.225Z,26.70
2022-08-25T16:51:33.697Z,26.68
2022-08-25T16:54:00.646Z,26.59
2022-08-25T16:56:27.598Z,26.63
2022-08-25T16:58:54.000Z,26.55
2022-08-25T17:01:21.321Z,26.44
2022-08-25T17:03:48.179Z,26.34
2022-08-25T17:06:15.137Z,26.27
2022-08-25T17:08:42.109Z,26.16
2022-08-25T17:11:10.247Z,26.17
2022-08-25T17:13:36.783Z,26.18
2022-08-25T17:16:03.348Z,26.14
2022-08-25T17:18:30.059Z,26.11
2022-08-25T17:20:56.532Z,26.01
2022-08-25T17:23:22.968Z,26.03
2022-08-25T17:25:49.542Z,26.09
2022-08-25T17:28:15.959Z,26.23
2022-08-25T17:30:42.905Z,26.24
2022-08-25T17:33:09.478Z,26.30
2022-08-25T17:35:35.858Z,26.30
2022-08-25T17:38:02.315Z,26.27
2022-08-25T17:40:32.953Z,26.27
2022-08-25T17:43:01.555Z,26.24
2022-08-25T17:45:27.968Z,26.19
2022-08-25T17:47:54.900Z,26.15
2022-08-25T17:50:21.809Z,25.80
2022-08-25T17:52:49.030Z,25.71
2022-08-25T17:55:15.721Z,25.41
2022-08-25T17:57:42.305Z,24.76
2022-08-25T18:00:08.709Z,24.87
2022-08-25T18:02:37.763Z,24.73
2022-08-25T18:05:04.353Z,24.42
2022-08-25T18:07:31.658Z,23.54
2022-08-25T18:09:58.312Z,23.12
2022-08-25T18:12:27.368Z,23.20
2022-08-25T18:14:54.173Z,23.00
2022-08-25T18:17:21.968Z,23.30
2022-08-25T18:19:49.699Z,23.20
2022-08-25T18:22:16.184Z,23.25
2022-08-25T18:24:42.982Z,22.22
2022-08-25T18:27:09.508Z,22.28
2022-08-25T18:29:35.948Z,22.83
2022-08-25T18:32:02.412Z,22.64
2022-08-25T18:34:31.091Z,22.40
2022-08-25T18:36:57.754Z,22.04
2022-08-25T18:39:24.720Z,21.62
2022-08-25T18:41:51.510Z,21.57
2022-08-25T18:44:18.088Z,21.35
2022-08-25T18:46:45.254Z,22.26
2022-08-25T18:49:12.129Z,22.98
2022-08-25T18:51:42.631Z,23.29
2022-08-25T18:54:22.850Z,23.55
2022-08-25T18:56:50.344Z,23.61
2022-08-25T18:59:18.220Z,23.68
2022-08-25T19:01:45.453Z,23.48
2022-08-25T19:04:12.097Z,23.75
2022-08-25T19:06:38.907Z,23.90
2022-08-25T19:09:10.281Z,23.82
2022-08-25T19:11:36.964Z,23.68
2022-08-25T19:14:03.628Z,23.67
2022-08-25T19:16:39.491Z,23.93
2022-08-25T19:19:07.405Z,23.94
2022-08-25T19:21:35.081Z,23.85
2022-08-25T19:24:03.162Z,23.89
2022-08-25T19:26:29.875Z,23.95
2022-08-25T19:28:56.690Z,24.14
2022-08-25T19:31:23.307Z,24.01
2022-08-25T19:33:50.072Z,23.67
2022-08-25T19:36:17.367Z,23.83
2022-08-25T19:38:43.846Z,23.85
2022-08-25T19:41:14.523Z,23.98
2022-08-25T19:43:55.213Z,24.05
2022-08-25T19:46:23.573Z,23.92
2022-08-25T19:48:50.585Z,23.78
2022-08-25T19:51:19.286Z,23.34
2022-08-25T19:53:54.816Z,23.26
2022-08-25T19:56:23.113Z,23.29
2022-08-25T19:58:49.582Z,23.52
2022-08-25T20:01:18.184Z,23.24
2022-08-25T20:03:46.205Z,23.27
2022-08-25T20:06:15.939Z,23.31
2022-08-25T20:08:42.807Z,23.16
2022-08-25T20:11:09.452Z,23.24
2022-08-25T20:13:36.289Z,23.43
2022-08-25T20:16:02.797Z,23.62
2022-08-25T20:18:32.076Z,23.38
2022-08-25T20:20:58.540Z,23.39
2022-08-25T20:23:25.274Z,23.50
2022-08-25T20:25:54.300Z,23.18
2022-08-25T20:28:22.840Z,23.03
2022-08-25T20:30:49.444Z,23.28
2022-08-25T20:33:22.838Z,23.28
2022-08-25T20:35:50.245Z,23.09
2022-08-25T20:38:21.020Z,22.94
2022-08-25T20:40:49.912Z,22.95
2022-08-25T20:43:16.535Z,22.93
2022-08-25T20:45:43.200Z,22.83
2022-08-25T20:48:09.760Z,22.90
2022-08-25T20:50:36.259Z,23.09
2022-08-25T20:53:05.418Z,22.68
2022-08-25T20:55:41.704Z,22.48
2022-08-25T20:58:09.052Z,22.80
2022-08-25T21:00:36.129Z,22.71
2022-08-25T21:03:02.741Z,22.94
2022-08-25T21:05:29.253Z,23.00
2022-08-25T21:08:02.943Z,22.97
2022-08-25T21:10:29.428Z,22.75
2022-08-25T21:12:57.630Z,22.64
2022-08-25T21:15:24.266Z,22.51
2022-08-25T21:17:50.789Z,22.51
2022-08-25T21:20:17.963Z,22.46
2022-08-25T21:22:44.970Z,22.42
2022-08-25T21:25:14.296Z,22.43
2022-08-25T21:27:40.787Z,22.66
2022-08-25T21:30:11.277Z,22.75
2022-08-25T21:32:37.832Z,22.81
2022-08-25T21:35:04.447Z,22.71
2022-08-25T21:37:34.407Z,22.76
2022-08-25T21:40:01.097Z,22.67
2022-08-25T21:42:28.643Z,22.71
2022-08-25T21:44:55.060Z,22.82
2022-08-25T21:47:21.740Z,22.67
2022-08-25T21:49:49.860Z,22.56
2022-08-25T21:52:16.373Z,22.24
2022-08-25T21:54:44.476Z,22.29
2022-08-25T21:57:11.555Z,22.26
2022-08-25T21:59:37.979Z,22.30
2022-08-25T22:02:05.471Z,22.15
2022-08-25T22:04:32.258Z,21.98
2022-08-25T22:06:59.259Z,22.27
2022-08-25T22:09:28.565Z,22.34
2022-08-25T22:11:55.096Z,22.00
2022-08-25T22:14:21.642Z,21.97
2022-08-25T22:16:48.194Z,21.95
2022-08-25T22:19:15.328Z,21.97
2022-08-25T22:21:41.842Z,21.82
2022-08-25T22:24:08.458Z,21.62
2022-08-25T22:26:34.907Z,21.93
2022-08-25T22:29:01.400Z,22.00
2022-08-25T22:31:27.842Z,22.10
2022-08-25T22:33:54.891Z,22.01
2022-08-25T22:36:24.204Z,21.87
2022-08-25T22:38:51.325Z,21.85
2022-08-25T22:41:19.070Z,21.91
2022-08-25T22:43:49.925Z,21.94
2022-08-25T22:46:17.985Z,21.93
2022-08-25T22:48:44.775Z,21.98
2022-08-25T22:51:12.670Z,21.92
2022-08-25T22:53:39.186Z,21.70
2022-08-25T22:56:05.748Z,21.66
2022-08-25T22:58:32.312Z,21.70
2022-08-25T23:01:00.964Z,21.81
2022-08-25T23:03:27.490Z,21.89
2022-08-25T23:05:53.969Z,22.02
2022-08-25T23:08:38.905Z,21.74
2022-08-25T23:11:07.141Z,21.87
2022-08-25T23:13:34.757Z,21.92
2022-08-25T23:16:05.277Z,21.75
2022-08-25T23:18:32.300Z,21.33
2022-08-25T23:20:59.030Z,21.43
2022-08-25T23:23:28.558Z,21.53
2022-08-25T23:25:55.184Z,21.36
2022-08-25T23:28:21.926Z,21.37
2022-08-25T23:30:50.976Z,21.43
2022-08-25T23:33:25.990Z,21.47
2022-08-25T23:35:52.452Z,21.35
2022-08-25T23:38:19.128Z,21.14
2022-08-25T23:40:45.974Z,21.28
2022-08-25T23:43:13.096Z,21.16
2022-08-25T23:45:39.626Z,21.35
2022-08-25T23:48:07.428Z,21.20
2022-08-25T23:50:33.964Z,21.30
2022-08-25T23:53:00.469Z,21.21
2022-08-25T23:55:33.429Z,21.21
2022-08-25T23:58:00.640Z,21.28
